Bow, New Hampshire
Current Conditions -  °F | °C
As of 10:51 PM on Sunday 25 Jan 2015 (Local Time) from KCON Reporting Station
Clear Clear  
Wind Chill:   Ceiling: Unl
Heat Index: 11°   Visibility: 10mi
Dew Point: -2°   Wind: 6mph
Humidity: 56%   Direction: 350°N
Pressure: 30.04"   Gusts: NA
Location:  43.14°N, 71.54°W
Report Text: KCON 260351Z AUTO 35005KT 10SM CLR M12/M19 A3004 RMK AO2 SLP180 T11171189
Loading
Personal Weather Stations






























Interactive Weather Map New forecast layout! Learn more

10-Day Weather Forecast

Advertisements
Track Severe Weather on mobile